createdAt,value
2023-01-17T00:00:13.079Z,42.00
2023-01-17T00:05:39.450Z,41.63
2023-01-17T00:10:46.312Z,41.50
2023-01-17T00:21:17.972Z,42.47
2023-01-17T00:26:25.572Z,42.27
2023-01-17T00:31:31.822Z,41.87
2023-01-17T00:36:38.262Z,41.95
2023-01-17T00:41:44.173Z,41.83
2023-01-17T00:47:09.837Z,42.30
2023-01-17T00:52:34.871Z,42.00
2023-01-17T00:58:01.656Z,41.92
2023-01-17T01:03:31.195Z,42.57
2023-01-17T01:08:56.635Z,42.83
2023-01-17T01:14:22.218Z,42.47
2023-01-17T01:19:47.848Z,42.35
2023-01-17T01:25:13.154Z,43.03
2023-01-17T01:30:38.479Z,42.17
2023-01-17T01:35:47.447Z,43.20
2023-01-17T01:40:58.064Z,43.20
2023-01-17T01:46:06.345Z,43.30
2023-01-17T01:51:18.493Z,42.50
2023-01-17T01:56:26.802Z,42.43
2023-01-17T02:01:34.333Z,42.77
2023-01-17T02:06:55.813Z,42.83
2023-01-17T02:12:04.753Z,41.57
2023-01-17T02:17:28.703Z,41.97
2023-01-17T02:23:10.728Z,43.00
2023-01-17T02:28:37.334Z,42.83
2023-01-17T02:33:55.375Z,43.00
2023-01-17T02:39:24.113Z,42.27
2023-01-17T02:44:31.660Z,43.05
2023-01-17T02:49:39.102Z,42.77
2023-01-17T02:55:12.289Z,42.97
2023-01-17T03:00:45.580Z,42.50
2023-01-17T03:06:01.855Z,42.13
2023-01-17T03:11:11.037Z,42.83
2023-01-17T03:16:21.766Z,42.30
2023-01-17T03:21:29.219Z,41.53
2023-01-17T03:26:37.810Z,42.43
2023-01-17T03:31:44.912Z,41.90
2023-01-17T03:41:59.148Z,41.40
2023-01-17T03:47:06.897Z,41.47
2023-01-17T03:52:16.659Z,42.17
2023-01-17T03:57:23.388Z,41.30
2023-01-17T04:02:31.048Z,41.55
2023-01-17T04:07:38.421Z,41.90
2023-01-17T04:12:46.373Z,42.10
2023-01-17T04:17:53.197Z,41.67
2023-01-17T04:23:00.509Z,41.43
2023-01-17T04:28:08.055Z,41.25
2023-01-17T04:33:15.530Z,42.10
2023-01-17T04:38:24.217Z,40.85
2023-01-17T04:43:31.515Z,41.68
2023-01-17T04:48:39.694Z,42.27
2023-01-17T04:53:46.703Z,41.57
2023-01-17T05:03:59.666Z,44.67
2023-01-17T05:09:07.530Z,41.50
2023-01-17T05:14:14.916Z,43.03
2023-01-17T05:19:22.117Z,42.67
2023-01-17T05:29:35.047Z,42.27
2023-01-17T05:39:48.117Z,42.17
2023-01-17T05:44:55.422Z,41.60
2023-01-17T05:50:02.744Z,42.93
2023-01-17T05:55:10.821Z,42.13
2023-01-17T06:00:18.658Z,42.20
2023-01-17T06:05:28.456Z,43.10
2023-01-17T06:16:22.770Z,42.30
2023-01-17T06:21:33.967Z,42.07
2023-01-17T06:26:41.095Z,41.93
2023-01-17T06:31:51.239Z,42.30
2023-01-17T06:36:59.175Z,42.10
2023-01-17T06:42:06.727Z,41.93
2023-01-17T06:47:13.535Z,42.67
2023-01-17T06:52:22.187Z,42.10
2023-01-17T06:57:33.138Z,41.97
2023-01-17T07:02:40.163Z,42.30
2023-01-17T07:07:48.465Z,41.77
2023-01-17T07:13:01.028Z,42.20
2023-01-17T07:18:09.398Z,42.80
2023-01-17T07:23:16.779Z,41.87
2023-01-17T07:28:24.807Z,41.93
2023-01-17T07:33:32.232Z,41.97
2023-01-17T07:38:39.683Z,42.07
2023-01-17T07:43:46.957Z,41.87
2023-01-17T07:48:55.431Z,43.93
2023-01-17T07:54:02.827Z,42.17
2023-01-17T07:59:10.955Z,42.50
2023-01-17T08:04:18.151Z,42.20
2023-01-17T08:09:25.663Z,42.50
2023-01-17T08:14:32.514Z,42.00
2023-01-17T08:19:40.980Z,41.92
2023-01-17T08:29:55.098Z,41.65
2023-01-17T08:35:02.719Z,41.90
2023-01-17T08:40:11.471Z,42.10
2023-01-17T08:45:18.362Z,42.67
2023-01-17T08:50:26.410Z,42.37
2023-01-17T08:55:33.886Z,42.30
2023-01-17T09:00:41.347Z,42.48
2023-01-17T09:05:48.506Z,42.33
2023-01-17T09:10:57.110Z,42.20
2023-01-17T09:16:05.045Z,41.90
2023-01-17T09:21:18.656Z,42.20
2023-01-17T09:26:30.957Z,42.48
2023-01-17T09:31:38.660Z,42.77
2023-01-17T09:36:45.417Z,42.17
2023-01-17T09:42:05.907Z,41.93
2023-01-17T09:47:34.851Z,42.10
2023-01-17T09:52:41.640Z,42.17
2023-01-17T10:08:52.907Z,42.15
2023-01-17T10:14:23.529Z,42.23
2023-01-17T10:19:41.462Z,41.88
2023-01-17T10:25:14.395Z,42.37
2023-01-17T10:30:28.415Z,42.03
2023-01-17T10:35:39.304Z,42.27
2023-01-17T10:41:09.217Z,43.37
2023-01-17T10:46:29.158Z,43.20
2023-01-17T10:52:25.673Z,42.10
2023-01-17T10:57:41.769Z,42.45
2023-01-17T11:02:51.046Z,42.17
2023-01-17T11:08:12.608Z,42.50
2023-01-17T11:13:37.969Z,42.57
2023-01-17T11:18:45.422Z,42.70
2023-01-17T11:23:57.919Z,42.47
2023-01-17T11:29:35.917Z,42.63
2023-01-17T11:34:43.067Z,42.00
2023-01-17T11:39:50.902Z,42.33
2023-01-17T11:45:01.566Z,42.40
2023-01-17T11:50:25.924Z,41.43
2023-01-17T11:55:34.131Z,42.03
2023-01-17T12:00:46.744Z,42.40
2023-01-17T12:06:20.207Z,42.27
2023-01-17T12:11:43.129Z,41.73
2023-01-17T12:17:18.079Z,42.60
2023-01-17T12:23:04.989Z,41.70
2023-01-17T12:28:22.996Z,41.80
2023-01-17T12:33:37.749Z,41.63
2023-01-17T12:38:47.272Z,41.83
2023-01-17T12:44:00.825Z,42.23
2023-01-17T12:49:39.125Z,42.37
2023-01-17T12:54:51.543Z,42.53
2023-01-17T13:00:15.180Z,42.37
2023-01-17T13:05:35.493Z,42.17
2023-01-17T13:10:49.881Z,41.77
2023-01-17T13:16:09.452Z,41.90
2023-01-17T13:21:34.049Z,42.27
2023-01-17T13:27:20.881Z,41.95
2023-01-17T13:33:09.426Z,41.57
2023-01-17T13:38:59.613Z,42.27
2023-01-17T13:44:24.802Z,42.50
2023-01-17T13:49:39.237Z,42.17
2023-01-17T13:54:56.409Z,43.00
2023-01-17T14:00:19.951Z,41.93
2023-01-17T14:05:43.738Z,41.77
2023-01-17T14:10:56.346Z,42.57
2023-01-17T14:16:05.596Z,42.70
2023-01-17T14:21:27.617Z,42.70
2023-01-17T14:26:56.872Z,42.43
2023-01-17T14:32:08.059Z,43.00
2023-01-17T14:37:32.494Z,42.53
2023-01-17T14:42:40.416Z,42.80
2023-01-17T14:47:48.289Z,42.30
2023-01-17T14:53:17.011Z,42.10
2023-01-17T14:58:37.790Z,41.90
2023-01-17T15:03:57.214Z,42.00
2023-01-17T15:09:20.927Z,42.03
2023-01-17T15:14:36.375Z,42.60
2023-01-17T15:19:46.420Z,42.83
2023-01-17T15:24:53.568Z,42.50
2023-01-17T15:30:04.191Z,42.03
2023-01-17T15:35:26.483Z,42.43
2023-01-17T15:40:34.125Z,43.50
2023-01-17T15:45:42.587Z,44.65
2023-01-17T15:50:50.389Z,42.97
2023-01-17T15:55:58.234Z,43.57
2023-01-17T16:01:08.980Z,43.63
2023-01-17T16:06:33.391Z,45.93
2023-01-17T16:11:41.618Z,43.35
2023-01-17T16:16:53.915Z,41.93
2023-01-17T16:22:05.220Z,42.97
2023-01-17T16:27:16.171Z,42.60
2023-01-17T16:32:23.205Z,43.63
2023-01-17T16:37:31.117Z,42.67
2023-01-17T16:42:43.399Z,49.57
2023-01-17T16:47:53.770Z,45.37
2023-01-17T16:53:01.325Z,43.55
2023-01-17T16:58:08.379Z,44.77
2023-01-17T17:03:22.280Z,46.10
2023-01-17T17:08:30.165Z,44.40
2023-01-17T17:13:39.073Z,44.63
2023-01-17T17:18:48.407Z,49.53
2023-01-17T17:24:00.584Z,47.67
2023-01-17T17:29:12.387Z,49.10
2023-01-17T17:34:20.970Z,48.33
2023-01-17T17:39:31.118Z,46.90
2023-01-17T17:44:45.367Z,63.25
2023-01-17T17:49:53.439Z,53.13
2023-01-17T17:55:00.553Z,53.50
2023-01-17T18:00:10.084Z,48.60
2023-01-17T18:05:18.150Z,53.80
2023-01-17T18:10:27.239Z,46.00
2023-01-17T18:15:34.930Z,48.10
2023-01-17T18:20:44.208Z,51.27
2023-01-17T18:25:52.152Z,48.43
2023-01-17T18:31:11.029Z,53.95
2023-01-17T18:36:19.748Z,53.53
2023-01-17T18:41:32.914Z,53.03
2023-01-17T18:46:42.365Z,48.70
2023-01-17T18:51:51.610Z,48.80
2023-01-17T18:56:58.968Z,48.93
2023-01-17T19:02:08.747Z,47.37
2023-01-17T19:07:15.855Z,48.10
2023-01-17T19:12:23.286Z,51.60
2023-01-17T19:17:31.403Z,49.10
2023-01-17T19:22:39.859Z,48.90
2023-01-17T19:27:59.881Z,46.90
2023-01-17T19:33:09.195Z,48.93
2023-01-17T19:38:17.061Z,56.70
2023-01-17T19:43:28.858Z,57.03
2023-01-17T19:48:37.519Z,64.23
2023-01-17T19:53:46.418Z,51.27
2023-01-17T19:59:02.426Z,55.00
2023-01-17T20:04:09.690Z,56.40
2023-01-17T20:09:18.281Z,51.45
2023-01-17T20:14:39.644Z,53.92
2023-01-17T20:19:56.223Z,52.27
2023-01-17T20:25:04.071Z,50.03
2023-01-17T20:30:20.072Z,58.67
2023-01-17T20:35:23.951Z,56.83
2023-01-17T20:40:31.970Z,67.82
2023-01-17T20:45:39.760Z,54.25
2023-01-17T20:50:47.402Z,54.00
2023-01-17T20:55:59.314Z,81.13
2023-01-17T21:01:08.660Z,49.90
2023-01-17T21:06:16.377Z,44.63
2023-01-17T21:11:29.532Z,46.63
2023-01-17T21:16:37.284Z,44.33
2023-01-17T21:21:45.015Z,44.13
2023-01-17T21:26:52.574Z,45.87
2023-01-17T21:32:02.515Z,45.20
2023-01-17T21:37:10.896Z,45.90
2023-01-17T21:42:19.587Z,47.33
2023-01-17T21:47:26.798Z,47.37
2023-01-17T21:52:34.971Z,46.20
2023-01-17T21:58:01.902Z,51.65
2023-01-17T22:03:11.363Z,44.77
2023-01-17T22:08:20.885Z,42.53
2023-01-17T22:13:31.959Z,40.90
2023-01-17T22:18:41.979Z,45.00
2023-01-17T22:23:54.353Z,41.50
2023-01-17T22:29:05.627Z,41.60
2023-01-17T22:34:15.675Z,48.50
2023-01-17T22:39:24.270Z,42.43
2023-01-17T22:44:32.070Z,42.27
2023-01-17T22:49:45.233Z,41.15
2023-01-17T22:54:52.995Z,42.53
2023-01-17T23:00:00.957Z,47.87
2023-01-17T23:05:12.927Z,57.70
2023-01-17T23:10:21.307Z,50.00
2023-01-17T23:15:47.027Z,51.70
2023-01-17T23:20:54.786Z,53.53
2023-01-17T23:26:02.994Z,54.50
2023-01-17T23:31:11.191Z,53.75
2023-01-17T23:36:18.825Z,53.87
2023-01-17T23:41:45.789Z,52.83
2023-01-17T23:46:54.195Z,48.00
2023-01-17T23:52:03.589Z,48.97
2023-01-17T23:57:10.316Z,47.80
